createdAt,value
2018-05-06T00:00:51.713Z,15.59
2018-05-06T00:03:19.248Z,15.60
2018-05-06T00:05:46.768Z,15.55
2018-05-06T00:08:14.356Z,15.55
2018-05-06T00:10:41.931Z,15.55
2018-05-06T00:13:09.523Z,15.51
2018-05-06T00:15:37.233Z,15.55
2018-05-06T00:18:04.860Z,15.47
2018-05-06T00:20:32.403Z,15.40
2018-05-06T00:22:59.947Z,15.29
2018-05-06T00:25:27.489Z,15.33
2018-05-06T00:27:55.048Z,15.30
2018-05-06T00:30:22.603Z,15.26
2018-05-06T00:32:50.174Z,15.20
2018-05-06T00:35:17.727Z,15.17
2018-05-06T00:37:45.267Z,15.05
2018-05-06T00:40:12.828Z,15.06
2018-05-06T00:42:40.402Z,15.06
2018-05-06T00:45:07.961Z,15.05
2018-05-06T00:47:35.504Z,14.98
2018-05-06T00:50:03.079Z,15.04
2018-05-06T00:52:30.653Z,15.01
2018-05-06T00:54:58.255Z,14.97
2018-05-06T00:57:25.793Z,14.95
2018-05-06T00:59:53.333Z,14.89
2018-05-06T01:02:20.910Z,14.84
2018-05-06T01:04:48.484Z,14.81
2018-05-06T01:07:16.053Z,14.80
2018-05-06T01:09:43.598Z,14.75
2018-05-06T01:12:11.153Z,14.79
2018-05-06T01:14:38.712Z,14.84
2018-05-06T01:17:06.253Z,14.83
2018-05-06T01:19:33.781Z,14.76
2018-05-06T01:22:01.347Z,14.70
2018-05-06T01:24:28.894Z,14.69
2018-05-06T01:26:56.449Z,14.62
2018-05-06T01:29:23.998Z,14.67
2018-05-06T01:31:51.597Z,14.67
2018-05-06T01:34:19.148Z,14.67
2018-05-06T01:36:46.691Z,14.66
2018-05-06T01:39:14.268Z,14.65
2018-05-06T01:41:41.820Z,14.64
2018-05-06T01:44:09.342Z,14.58
2018-05-06T01:46:36.917Z,14.45
2018-05-06T01:49:04.473Z,14.53
2018-05-06T01:51:32.009Z,14.48
2018-05-06T01:53:59.549Z,14.43
2018-05-06T01:56:27.098Z,14.40
2018-05-06T01:58:54.736Z,14.32
2018-05-06T02:01:22.307Z,14.26
2018-05-06T02:03:49.865Z,14.21
2018-05-06T02:06:17.392Z,14.16
2018-05-06T02:08:44.983Z,14.15
2018-05-06T02:11:12.521Z,14.04
2018-05-06T02:13:40.106Z,14.15
2018-05-06T02:16:07.664Z,14.04
2018-05-06T02:18:35.217Z,14.12
2018-05-06T02:21:02.795Z,14.14
2018-05-06T02:23:30.398Z,14.14
2018-05-06T02:25:58.036Z,14.20
2018-05-06T02:28:25.597Z,14.08
2018-05-06T02:30:53.139Z,14.05
2018-05-06T02:33:20.691Z,14.03
2018-05-06T02:35:48.274Z,13.97
2018-05-06T02:38:15.832Z,13.91
2018-05-06T02:40:43.507Z,13.89
2018-05-06T02:43:11.100Z,13.85
2018-05-06T02:45:38.688Z,13.78
2018-05-06T02:48:06.299Z,13.69
2018-05-06T02:50:33.839Z,13.62
2018-05-06T02:53:01.392Z,13.57
2018-05-06T02:55:29.066Z,13.55
2018-05-06T02:57:56.631Z,13.48
2018-05-06T03:00:24.285Z,13.50
2018-05-06T03:02:51.829Z,13.51
2018-05-06T03:05:19.392Z,13.45
2018-05-06T03:07:46.935Z,13.38
2018-05-06T03:10:14.529Z,13.40
2018-05-06T03:12:42.155Z,13.37
2018-05-06T03:15:09.711Z,13.35
2018-05-06T03:17:37.275Z,13.68
2018-05-06T03:20:04.814Z,13.59
2018-05-06T03:22:32.339Z,13.53
2018-05-06T03:24:59.875Z,13.48
2018-05-06T03:27:28.349Z,13.38
2018-05-06T03:29:55.871Z,13.41
2018-05-06T03:32:23.416Z,13.48
2018-05-06T03:34:50.979Z,13.43
2018-05-06T03:37:18.526Z,13.30
2018-05-06T03:39:46.154Z,13.31
2018-05-06T03:42:13.694Z,13.30
2018-05-06T03:44:41.255Z,13.31
2018-05-06T03:47:08.795Z,13.26
2018-05-06T03:49:36.388Z,13.25
2018-05-06T03:52:03.971Z,13.40
2018-05-06T03:54:31.494Z,13.34
2018-05-06T03:57:11.863Z,13.54
2018-05-06T03:59:51.293Z,13.52
2018-05-06T04:02:40.566Z,13.51
2018-05-06T04:05:08.132Z,13.51
2018-05-06T04:07:35.739Z,13.55
2018-05-06T04:10:03.251Z,13.44
2018-05-06T04:12:30.848Z,13.57
2018-05-06T04:14:58.378Z,13.59
2018-05-06T04:17:25.922Z,13.58
2018-05-06T04:19:53.485Z,13.57
2018-05-06T04:22:21.042Z,13.52
2018-05-06T04:24:48.675Z,13.51
2018-05-06T04:27:16.267Z,13.56
2018-05-06T04:29:43.827Z,13.65
2018-05-06T04:32:11.397Z,13.65
2018-05-06T04:34:38.932Z,13.56
2018-05-06T04:37:06.479Z,13.64
2018-05-06T04:39:34.049Z,13.73
2018-05-06T04:42:01.580Z,13.70
2018-05-06T04:44:29.146Z,13.79
2018-05-06T04:46:56.695Z,13.85
2018-05-06T04:49:24.247Z,13.91
2018-05-06T04:51:51.877Z,13.95
2018-05-06T04:54:19.492Z,14.01
2018-05-06T04:56:47.173Z,14.10
2018-05-06T04:59:14.884Z,14.25
2018-05-06T05:01:42.418Z,14.37
2018-05-06T05:04:10.069Z,14.35
2018-05-06T05:06:37.700Z,14.33
2018-05-06T05:09:06.241Z,14.44
2018-05-06T05:11:33.793Z,14.42
2018-05-06T05:14:01.418Z,14.54
2018-05-06T05:16:29.089Z,14.42
2018-05-06T05:18:56.643Z,14.57
2018-05-06T05:21:24.185Z,14.67
2018-05-06T05:23:51.766Z,14.69
2018-05-06T05:26:19.352Z,14.92
2018-05-06T05:28:46.930Z,15.08
2018-05-06T05:31:14.549Z,15.23
2018-05-06T05:33:42.128Z,15.25
2018-05-06T05:36:09.659Z,15.31
2018-05-06T05:38:37.219Z,15.26
2018-05-06T05:41:04.767Z,15.37
2018-05-06T05:43:32.403Z,15.63
2018-05-06T05:45:59.986Z,15.61
2018-05-06T05:48:27.538Z,15.85
2018-05-06T05:50:55.099Z,16.02
2018-05-06T05:53:22.644Z,16.10
2018-05-06T05:55:50.198Z,16.25
2018-05-06T05:58:17.832Z,16.36
2018-05-06T06:00:45.516Z,16.58
2018-05-06T06:03:13.494Z,16.52
2018-05-06T06:05:41.672Z,16.41
2018-05-06T06:08:09.228Z,16.63
2018-05-06T06:10:36.802Z,16.54
2018-05-06T06:13:04.396Z,16.67
2018-05-06T06:15:32.078Z,16.79
2018-05-06T06:17:59.624Z,16.80
2018-05-06T06:20:27.300Z,16.62
2018-05-06T06:22:55.024Z,16.85
2018-05-06T06:25:23.352Z,16.89
2018-05-06T06:27:50.930Z,16.93
2018-05-06T06:30:18.854Z,17.28
2018-05-06T06:32:46.419Z,17.54
2018-05-06T06:35:14.022Z,17.62
2018-05-06T06:37:41.544Z,17.90
2018-05-06T06:40:09.236Z,18.02
2018-05-06T06:42:36.813Z,17.78
2018-05-06T06:45:04.381Z,17.95
2018-05-06T06:47:31.971Z,17.94
2018-05-06T06:49:59.558Z,17.79
2018-05-06T06:52:27.157Z,18.06
2018-05-06T06:54:55.994Z,18.42
2018-05-06T06:57:23.563Z,18.59
2018-05-06T07:05:46.444Z,18.44
2018-05-06T07:08:13.998Z,19.02
2018-05-06T07:10:41.549Z,19.25
2018-05-06T07:13:09.101Z,18.90
2018-05-06T07:15:36.665Z,19.25
2018-05-06T07:18:04.251Z,18.70
2018-05-06T07:20:31.807Z,19.22
2018-05-06T07:22:59.379Z,19.52
2018-05-06T07:25:26.930Z,19.54
2018-05-06T07:27:54.474Z,19.70
2018-05-06T07:30:22.028Z,19.60
2018-05-06T07:32:49.591Z,19.75
2018-05-06T07:35:17.237Z,19.55
2018-05-06T07:37:44.763Z,20.03
2018-05-06T07:40:12.332Z,20.32
2018-05-06T07:42:39.887Z,20.21
2018-05-06T07:45:07.537Z,20.27
2018-05-06T07:47:35.097Z,19.67
2018-05-06T07:50:02.686Z,20.40
2018-05-06T07:52:30.370Z,20.89
2018-05-06T07:54:57.964Z,21.08
2018-05-06T07:57:25.479Z,21.04
2018-05-06T07:59:53.009Z,21.39
2018-05-06T08:02:20.557Z,21.57
2018-05-06T08:04:48.109Z,21.43
2018-05-06T08:07:15.671Z,21.38
2018-05-06T08:09:43.252Z,21.82
2018-05-06T08:12:10.765Z,22.13
2018-05-06T08:14:38.317Z,21.23
2018-05-06T08:17:05.890Z,21.36
2018-05-06T08:19:33.418Z,22.02
2018-05-06T08:22:01.005Z,21.88
2018-05-06T08:24:28.807Z,22.10
2018-05-06T08:26:56.350Z,22.28
2018-05-06T08:29:23.908Z,22.60
2018-05-06T08:31:51.461Z,22.75
2018-05-06T08:34:18.998Z,22.84
2018-05-06T08:36:46.556Z,23.01
2018-05-06T08:39:14.112Z,22.77
2018-05-06T08:41:41.806Z,22.78
2018-05-06T08:44:09.420Z,23.12
2018-05-06T08:46:36.969Z,23.06
2018-05-06T08:49:04.560Z,23.07
2018-05-06T08:51:32.168Z,23.30
2018-05-06T08:53:59.665Z,23.76
2018-05-06T08:56:27.209Z,23.91
2018-05-06T08:58:54.930Z,24.04
2018-05-06T09:01:22.478Z,23.91
2018-05-06T09:03:50.006Z,24.09
2018-05-06T09:06:17.557Z,23.83
2018-05-06T09:08:45.169Z,23.88
2018-05-06T09:11:12.872Z,23.93
2018-05-06T09:13:40.352Z,23.99
2018-05-06T09:16:07.946Z,24.28
2018-05-06T09:18:35.504Z,24.29
2018-05-06T09:21:03.144Z,24.70
2018-05-06T09:23:30.801Z,25.02
2018-05-06T09:25:58.361Z,25.06
2018-05-06T09:28:25.936Z,25.19
2018-05-06T09:30:53.635Z,25.03
2018-05-06T09:33:21.187Z,24.89
2018-05-06T09:35:48.728Z,25.10
2018-05-06T09:38:17.412Z,25.55
2018-05-06T09:40:45.043Z,25.08
2018-05-06T09:43:18.836Z,25.47
2018-05-06T09:45:46.350Z,25.38
2018-05-06T09:48:13.920Z,25.46
2018-05-06T09:50:41.504Z,25.78
2018-05-06T09:53:09.056Z,25.58
2018-05-06T09:55:36.609Z,25.39
2018-05-06T09:58:04.214Z,25.50
2018-05-06T10:00:31.770Z,25.50
2018-05-06T10:02:59.310Z,25.96
2018-05-06T10:05:26.926Z,26.14
2018-05-06T10:07:54.465Z,26.44
2018-05-06T10:10:22.034Z,26.36
2018-05-06T10:12:49.673Z,26.77
2018-05-06T10:15:17.264Z,26.37
2018-05-06T10:17:44.863Z,26.80
2018-05-06T10:20:12.425Z,26.50
2018-05-06T10:22:40.237Z,26.88
2018-05-06T10:25:07.794Z,27.03
2018-05-06T10:27:35.372Z,26.58
2018-05-06T10:30:02.931Z,26.43
2018-05-06T10:32:30.486Z,26.73
2018-05-06T10:34:59.652Z,26.93
2018-05-06T10:37:27.259Z,26.74
2018-05-06T10:39:54.870Z,27.26
2018-05-06T10:42:22.504Z,27.16
2018-05-06T10:44:50.060Z,27.15
2018-05-06T10:52:29.382Z,27.21
2018-05-06T10:55:17.724Z,27.27
2018-05-06T10:57:57.950Z,26.72
2018-05-06T11:00:29.385Z,26.91
2018-05-06T11:03:03.510Z,26.81
2018-05-06T11:08:30.647Z,27.18
2018-05-06T11:11:09.059Z,27.40
2018-05-06T11:13:57.422Z,27.15
2018-05-06T11:19:18.388Z,27.72
2018-05-06T11:24:47.980Z,28.24
2018-05-06T11:27:24.691Z,28.89
2018-05-06T11:30:01.262Z,29.48
2018-05-06T11:35:53.392Z,31.93
2018-05-06T11:38:42.475Z,32.66
2018-05-06T11:41:10.135Z,33.32
2018-05-06T11:43:37.748Z,33.84
2018-05-06T11:46:05.290Z,34.06
2018-05-06T11:48:32.839Z,34.70
2018-05-06T11:51:00.396Z,35.63
2018-05-06T11:53:27.937Z,33.31
2018-05-06T11:55:55.459Z,35.04
2018-05-06T11:58:23.006Z,36.47
2018-05-06T12:00:50.547Z,37.23
2018-05-06T12:03:18.098Z,37.74
2018-05-06T12:05:45.724Z,37.82
2018-05-06T12:08:13.469Z,39.13
2018-05-06T12:10:41.028Z,39.53
2018-05-06T12:13:09.551Z,40.14
2018-05-06T12:15:37.314Z,39.39
2018-05-06T12:18:04.881Z,41.09
2018-05-06T12:20:32.428Z,40.04
2018-05-06T12:22:59.966Z,40.01
2018-05-06T12:25:27.493Z,40.95
2018-05-06T12:27:55.145Z,40.09
2018-05-06T12:30:23.146Z,39.13
2018-05-06T12:32:50.686Z,40.30
2018-05-06T12:35:18.240Z,41.87
2018-05-06T12:37:45.767Z,40.49
2018-05-06T12:40:13.351Z,42.42
2018-05-06T12:42:40.936Z,41.69
2018-05-06T12:45:08.489Z,43.64
2018-05-06T12:47:36.024Z,43.42
2018-05-06T12:50:03.683Z,45.30
2018-05-06T12:52:31.243Z,44.27
2018-05-06T12:54:58.839Z,45.29
2018-05-06T12:57:26.400Z,45.48
2018-05-06T12:59:53.942Z,46.88
2018-05-06T13:02:21.496Z,45.86
2018-05-06T13:04:49.001Z,45.76
2018-05-06T13:07:16.538Z,46.49
2018-05-06T13:09:44.121Z,44.52
2018-05-06T13:12:11.672Z,43.52
2018-05-06T13:14:39.213Z,43.01
2018-05-06T13:17:06.807Z,44.00
2018-05-06T13:19:34.352Z,46.51
2018-05-06T13:22:01.977Z,47.02
2018-05-06T13:24:29.594Z,45.12
2018-05-06T13:26:57.257Z,45.57
2018-05-06T13:29:24.822Z,43.04
2018-05-06T13:31:52.444Z,45.56
2018-05-06T13:34:19.972Z,43.74
2018-05-06T13:36:47.532Z,44.27
2018-05-06T13:39:15.075Z,43.87
2018-05-06T13:41:42.609Z,44.04
2018-05-06T13:44:10.159Z,44.93
2018-05-06T13:46:37.701Z,45.37
2018-05-06T13:49:05.251Z,42.17
2018-05-06T13:51:32.814Z,43.54
2018-05-06T13:54:00.361Z,43.71
2018-05-06T13:56:27.908Z,45.12
2018-05-06T13:58:55.483Z,45.35
2018-05-06T14:01:23.041Z,44.07
2018-05-06T14:03:50.604Z,45.25
2018-05-06T14:06:18.272Z,44.88
2018-05-06T14:08:45.864Z,45.90
2018-05-06T14:11:13.420Z,44.80
2018-05-06T14:13:40.925Z,43.97
2018-05-06T14:16:08.499Z,43.70
2018-05-06T14:18:36.063Z,42.18
2018-05-06T14:21:03.648Z,44.52
2018-05-06T14:23:31.177Z,43.64
2018-05-06T14:25:58.724Z,43.29
2018-05-06T14:28:26.269Z,42.94
2018-05-06T14:30:53.839Z,42.79
2018-05-06T14:33:21.376Z,40.94
2018-05-06T14:35:48.908Z,42.84
2018-05-06T14:38:16.472Z,41.88
2018-05-06T14:40:44.093Z,43.03
2018-05-06T14:43:11.634Z,42.67
2018-05-06T14:45:39.166Z,43.75
2018-05-06T14:48:14.459Z,44.30
2018-05-06T14:50:42.004Z,43.99
2018-05-06T14:53:09.528Z,44.86
2018-05-06T14:55:37.247Z,45.20
2018-05-06T14:58:04.879Z,43.78
2018-05-06T15:00:32.419Z,43.52
2018-05-06T15:02:59.963Z,42.62
2018-05-06T15:05:27.527Z,42.88
2018-05-06T15:07:55.056Z,42.33
2018-05-06T15:10:22.674Z,43.83
2018-05-06T15:12:50.198Z,43.68
2018-05-06T15:15:17.779Z,43.71
2018-05-06T15:17:45.497Z,42.89
2018-05-06T15:20:13.056Z,42.16
2018-05-06T15:22:40.808Z,43.01
2018-05-06T15:25:08.395Z,43.73
2018-05-06T15:27:35.987Z,42.83
2018-05-06T15:30:03.537Z,43.57
2018-05-06T15:32:31.083Z,42.20
2018-05-06T15:34:58.602Z,43.09
2018-05-06T15:37:26.155Z,44.79
2018-05-06T15:39:53.715Z,44.52
2018-05-06T15:44:55.225Z,42.91
2018-05-06T15:47:22.794Z,43.27
2018-05-06T15:49:50.356Z,42.93
2018-05-06T15:52:18.111Z,41.84
2018-05-06T15:54:45.645Z,42.38
2018-05-06T15:57:13.178Z,40.74
2018-05-06T15:59:40.806Z,40.72
2018-05-06T16:02:14.307Z,41.24
2018-05-06T16:04:41.914Z,43.55
2018-05-06T16:07:09.419Z,43.99
2018-05-06T16:09:36.967Z,42.74
2018-05-06T16:12:04.569Z,42.66
2018-05-06T16:14:32.072Z,40.29
2018-05-06T16:16:59.602Z,41.53
2018-05-06T16:19:27.142Z,40.79
2018-05-06T16:21:54.695Z,40.49
2018-05-06T16:24:22.352Z,41.22
2018-05-06T16:26:49.909Z,38.87
2018-05-06T16:29:17.483Z,40.23
2018-05-06T16:31:45.006Z,38.35
2018-05-06T16:34:12.542Z,38.62
2018-05-06T16:36:40.155Z,38.89
2018-05-06T16:39:07.737Z,38.54
2018-05-06T16:41:35.292Z,38.59
2018-05-06T16:44:02.846Z,38.89
2018-05-06T16:46:30.393Z,39.37
2018-05-06T16:48:57.979Z,37.16
2018-05-06T16:51:25.507Z,38.05
2018-05-06T16:53:53.078Z,36.83
2018-05-06T16:56:20.631Z,36.84
2018-05-06T16:58:48.211Z,36.53
2018-05-06T17:01:16.212Z,37.16
2018-05-06T17:03:43.762Z,37.22
2018-05-06T17:06:11.367Z,36.92
2018-05-06T17:08:38.973Z,35.74
2018-05-06T17:11:08.684Z,35.17
2018-05-06T17:13:36.617Z,35.92
2018-05-06T17:16:04.215Z,35.67
2018-05-06T17:18:31.847Z,35.24
2018-05-06T17:20:59.465Z,36.10
2018-05-06T17:23:27.067Z,35.70
2018-05-06T17:25:54.605Z,35.31
2018-05-06T17:28:22.254Z,34.14
2018-05-06T17:30:49.792Z,34.21
2018-05-06T17:33:17.374Z,32.86
2018-05-06T17:35:45.156Z,31.59
2018-05-06T17:38:12.689Z,29.29
2018-05-06T17:40:40.454Z,28.77
2018-05-06T17:43:08.009Z,27.65
2018-05-06T17:45:35.643Z,27.03
2018-05-06T17:48:03.164Z,25.83
2018-05-06T17:50:30.723Z,25.73
2018-05-06T17:52:58.345Z,25.60
2018-05-06T17:55:25.948Z,25.30
2018-05-06T17:57:53.645Z,25.09
2018-05-06T18:00:21.205Z,24.81
2018-05-06T18:02:48.729Z,24.54
2018-05-06T18:05:16.301Z,24.12
2018-05-06T18:07:43.947Z,24.13
2018-05-06T18:10:11.585Z,23.79
2018-05-06T18:12:39.134Z,23.56
2018-05-06T18:15:06.812Z,23.35
2018-05-06T18:17:34.354Z,23.23
2018-05-06T18:20:01.900Z,22.99
2018-05-06T18:22:29.435Z,22.74
2018-05-06T18:24:56.991Z,22.65
2018-05-06T18:27:24.526Z,22.49
2018-05-06T18:29:52.090Z,22.24
2018-05-06T18:32:19.693Z,22.04
2018-05-06T18:34:47.256Z,21.82
2018-05-06T18:37:14.853Z,21.65
2018-05-06T18:39:42.424Z,21.42
2018-05-06T18:42:10.065Z,21.27
2018-05-06T18:44:37.597Z,20.99
2018-05-06T18:47:05.158Z,20.90
2018-05-06T18:49:32.696Z,20.68
2018-05-06T18:52:00.254Z,20.56
2018-05-06T18:54:28.030Z,20.41
2018-05-06T18:56:55.676Z,20.24
2018-05-06T18:59:23.166Z,20.09
2018-05-06T19:01:50.714Z,19.94
2018-05-06T19:04:18.290Z,19.81
2018-05-06T19:06:45.935Z,19.66
2018-05-06T19:09:13.503Z,19.59
2018-05-06T19:11:41.037Z,19.43
2018-05-06T19:14:10.675Z,19.26
2018-05-06T19:16:38.230Z,19.15
2018-05-06T19:19:05.757Z,19.09
2018-05-06T19:21:33.290Z,18.96
2018-05-06T19:24:02.071Z,18.90
2018-05-06T19:26:29.611Z,18.78
2018-05-06T19:28:57.139Z,18.68
2018-05-06T19:31:24.724Z,18.61
2018-05-06T19:33:52.270Z,18.53
2018-05-06T19:36:19.819Z,18.45
2018-05-06T19:38:47.528Z,18.36
2018-05-06T19:41:15.051Z,18.22
2018-05-06T19:43:42.584Z,18.18
2018-05-06T19:46:10.151Z,18.13
2018-05-06T19:48:37.758Z,18.07
2018-05-06T19:51:05.401Z,17.99
2018-05-06T19:53:33.105Z,17.98
2018-05-06T19:56:00.880Z,17.90
2018-05-06T19:58:28.436Z,17.86
2018-05-06T20:00:56.004Z,17.79
2018-05-06T20:03:23.616Z,17.67
2018-05-06T20:05:52.199Z,17.71
2018-05-06T20:08:19.855Z,17.65
2018-05-06T20:10:47.388Z,17.61
2018-05-06T20:13:14.939Z,17.53
2018-05-06T20:15:42.499Z,17.48
2018-05-06T20:18:10.050Z,17.47
2018-05-06T20:20:37.651Z,17.42
2018-05-06T20:23:05.183Z,17.40
2018-05-06T20:25:32.800Z,17.30
2018-05-06T20:28:00.381Z,17.27
2018-05-06T20:30:27.957Z,17.26
2018-05-06T20:32:55.593Z,17.25
2018-05-06T20:35:23.232Z,17.12
2018-05-06T20:37:50.755Z,17.08
2018-05-06T20:40:18.319Z,17.01
2018-05-06T20:42:45.871Z,16.99
2018-05-06T20:45:13.544Z,16.96
2018-05-06T20:47:41.091Z,16.91
2018-05-06T20:50:08.592Z,16.80
2018-05-06T20:52:36.195Z,16.78
2018-05-06T20:55:03.769Z,17.42
2018-05-06T20:57:31.286Z,18.02
2018-05-06T20:59:58.817Z,18.16
2018-05-06T21:02:26.545Z,18.85
2018-05-06T21:04:54.145Z,19.15
2018-05-06T21:07:21.643Z,19.14
2018-05-06T21:09:49.215Z,19.26
2018-05-06T21:12:16.748Z,19.27
2018-05-06T21:14:44.431Z,19.43
2018-05-06T21:17:12.090Z,18.75
2018-05-06T21:19:39.608Z,18.33
2018-05-06T21:22:07.374Z,18.16
2018-05-06T21:24:34.958Z,17.99
2018-05-06T21:27:02.482Z,17.76
2018-05-06T21:29:30.225Z,17.58
2018-05-06T21:31:57.759Z,17.42
2018-05-06T21:34:25.260Z,17.22
2018-05-06T21:36:52.914Z,17.06
2018-05-06T21:39:20.431Z,17.00
2018-05-06T21:41:47.938Z,16.78
2018-05-06T21:44:15.466Z,16.66
2018-05-06T21:46:42.961Z,16.48
2018-05-06T21:49:10.492Z,16.39
2018-05-06T21:51:38.007Z,16.27
2018-05-06T21:54:05.565Z,16.19
2018-05-06T21:56:33.087Z,16.12
2018-05-06T21:59:00.631Z,16.05
2018-05-06T22:01:28.191Z,15.99
2018-05-06T22:03:55.717Z,15.98
2018-05-06T22:06:23.236Z,15.86
2018-05-06T22:08:50.759Z,15.77
2018-05-06T22:11:18.299Z,15.72
2018-05-06T22:13:45.805Z,15.66
2018-05-06T22:16:13.289Z,15.63
2018-05-06T22:18:40.773Z,15.54
2018-05-06T22:21:08.263Z,15.55
2018-05-06T22:23:35.769Z,15.49
2018-05-06T22:26:03.296Z,15.50
2018-05-06T22:28:30.793Z,15.49
2018-05-06T22:30:58.308Z,15.45
2018-05-06T22:33:25.839Z,15.40
2018-05-06T22:35:53.362Z,15.35
2018-05-06T22:38:20.815Z,15.24
2018-05-06T22:40:48.311Z,15.15
2018-05-06T22:43:15.810Z,15.16
2018-05-06T22:45:43.332Z,15.13
2018-05-06T22:48:10.820Z,15.06
2018-05-06T22:50:38.325Z,15.05
2018-05-06T22:53:05.811Z,15.03
2018-05-06T22:55:33.358Z,14.98
2018-05-06T22:58:00.876Z,14.92
2018-05-06T23:00:28.422Z,14.88
2018-05-06T23:02:56.304Z,14.88
2018-05-06T23:05:23.808Z,14.88
2018-05-06T23:07:51.281Z,14.90
2018-05-06T23:10:18.793Z,14.90
2018-05-06T23:12:46.469Z,14.85
2018-05-06T23:15:14.985Z,14.87
2018-05-06T23:17:42.555Z,14.87
2018-05-06T23:20:10.251Z,14.93
2018-05-06T23:22:37.781Z,14.94
2018-05-06T23:25:05.267Z,14.88
2018-05-06T23:27:32.831Z,14.86
2018-05-06T23:30:00.472Z,14.80
2018-05-06T23:32:28.021Z,14.76
2018-05-06T23:34:55.530Z,14.70
2018-05-06T23:37:23.034Z,14.67
2018-05-06T23:39:50.551Z,14.61
2018-05-06T23:42:18.068Z,14.60
2018-05-06T23:44:45.677Z,14.54
2018-05-06T23:47:13.200Z,14.46
2018-05-06T23:49:40.897Z,14.40
2018-05-06T23:52:08.386Z,14.37
2018-05-06T23:54:36.096Z,14.32
2018-05-06T23:57:03.648Z,14.26
2018-05-06T23:59:31.117Z,14.19
